createdAt,value
2022-09-23T00:05:42.120Z,100.00
2022-09-23T00:15:47.023Z,100.00
2022-09-23T00:26:05.350Z,100.00
2022-09-23T00:36:11.210Z,100.00
2022-09-23T00:46:19.013Z,100.00
2022-09-23T00:56:26.300Z,100.00
2022-09-23T01:06:31.152Z,100.00
2022-09-23T01:16:53.803Z,100.00
2022-09-23T01:27:03.912Z,100.00
2022-09-23T01:37:25.150Z,100.00
2022-09-23T01:47:51.623Z,100.00
2022-09-23T01:58:01.548Z,100.00
2022-09-23T02:08:07.332Z,100.00
2022-09-23T02:18:15.630Z,100.00
2022-09-23T02:28:25.939Z,100.00
2022-09-23T02:38:44.271Z,100.00
2022-09-23T02:48:56.974Z,100.00
2022-09-23T02:59:02.301Z,100.00
2022-09-23T03:09:20.381Z,100.00
2022-09-23T03:19:22.485Z,100.00
2022-09-23T03:29:25.741Z,100.00
2022-09-23T03:39:46.248Z,100.00
2022-09-23T03:49:49.701Z,100.00
2022-09-23T03:59:52.313Z,100.00
2022-09-23T04:09:54.504Z,100.00
2022-09-23T04:19:56.630Z,100.00
2022-09-23T04:29:58.707Z,100.00
2022-09-23T04:40:03.894Z,100.00
2022-09-23T04:50:07.992Z,100.00
2022-09-23T05:00:15.578Z,100.00
2022-09-23T05:10:19.167Z,100.00
2022-09-23T05:20:21.772Z,100.00
2022-09-23T05:30:24.687Z,98.55
2022-09-23T05:40:29.363Z,95.08
2022-09-23T05:50:31.680Z,94.46
2022-09-23T06:00:33.648Z,99.16
2022-09-23T06:10:47.916Z,100.00
2022-09-23T06:20:58.079Z,98.11
2022-09-23T06:31:03.306Z,88.60
2022-09-23T06:41:07.284Z,84.61
2022-09-23T06:51:11.429Z,78.63
2022-09-23T07:01:17.682Z,71.87
2022-09-23T07:11:25.370Z,69.06
2022-09-23T07:21:28.084Z,64.68
2022-09-23T07:31:39.272Z,62.61
2022-09-23T07:41:44.960Z,61.83
2022-09-23T07:51:49.361Z,59.57
2022-09-23T08:01:52.896Z,56.31
2022-09-23T08:12:01.147Z,55.82
2022-09-23T08:22:03.182Z,56.04
2022-09-23T08:32:11.353Z,57.65
2022-09-23T08:42:30.192Z,57.19
2022-09-23T08:52:47.378Z,56.24
2022-09-23T09:02:53.715Z,55.81
2022-09-23T09:13:17.177Z,57.54
2022-09-23T09:23:24.908Z,57.92
2022-09-23T09:33:50.496Z,56.03
2022-09-23T09:43:57.370Z,55.56
2022-09-23T09:54:25.625Z,51.92
2022-09-23T10:04:36.732Z,51.61
2022-09-23T10:14:38.840Z,51.32
2022-09-23T10:24:43.927Z,50.34
2022-09-23T10:34:55.575Z,50.97
2022-09-23T10:45:28.141Z,50.10
2022-09-23T10:55:48.550Z,49.17
2022-09-23T11:06:04.128Z,50.70
2022-09-23T11:16:39.230Z,49.34
2022-09-23T11:27:16.180Z,46.31
2022-09-23T11:37:29.058Z,45.53
2022-09-23T11:47:39.813Z,45.01
2022-09-23T11:58:01.999Z,44.88
2022-09-23T12:08:25.954Z,44.90
2022-09-23T12:18:58.380Z,45.47
2022-09-23T12:29:03.642Z,45.19
2022-09-23T12:39:13.662Z,44.87
2022-09-23T12:49:39.414Z,43.48
2022-09-23T12:59:59.363Z,42.27
2022-09-23T13:10:21.262Z,43.92
2022-09-23T13:20:23.205Z,43.62
2022-09-23T13:30:32.284Z,45.19
2022-09-23T13:40:38.563Z,46.52
2022-09-23T13:50:52.303Z,46.44
2022-09-23T14:00:54.522Z,46.21
2022-09-23T14:10:57.865Z,46.32
2022-09-23T14:21:02.353Z,47.15
2022-09-23T14:31:05.514Z,48.63
2022-09-23T14:41:27.527Z,49.15
2022-09-23T14:51:32.383Z,49.14
2022-09-23T15:01:39.362Z,49.43
2022-09-23T15:11:44.356Z,50.56
2022-09-23T15:21:50.963Z,51.38
2022-09-23T15:31:55.735Z,52.29
2022-09-23T15:42:06.220Z,53.48
2022-09-23T15:52:12.542Z,55.14
2022-09-23T16:02:21.434Z,56.15
2022-09-23T16:12:27.385Z,57.94
2022-09-23T16:22:36.517Z,59.88
2022-09-23T16:32:40.831Z,61.39
2022-09-23T16:42:42.954Z,64.41
2022-09-23T16:52:58.552Z,65.56
2022-09-23T17:03:20.328Z,66.85
2022-09-23T17:13:23.435Z,68.18
2022-09-23T17:23:28.552Z,69.47
2022-09-23T17:33:37.874Z,70.82
2022-09-23T17:43:42.720Z,69.87
2022-09-23T17:53:46.775Z,69.63
2022-09-23T18:03:58.377Z,69.08
2022-09-23T18:14:07.928Z,69.32
2022-09-23T18:34:38.192Z,70.61
2022-09-23T18:44:43.548Z,71.50
2022-09-23T18:54:45.942Z,72.26
2022-09-23T19:04:48.156Z,73.05
2022-09-23T19:14:52.501Z,73.49
2022-09-23T19:24:54.730Z,74.61
2022-09-23T19:34:59.985Z,75.58
2022-09-23T19:45:05.009Z,77.56
2022-09-23T19:55:07.870Z,78.69
2022-09-23T20:05:12.133Z,79.82
2022-09-23T20:15:17.101Z,80.63
2022-09-23T20:25:22.559Z,83.60
2022-09-23T20:35:29.903Z,83.86
2022-09-23T20:45:32.326Z,85.00
2022-09-23T20:55:36.082Z,84.57
2022-09-23T21:05:42.507Z,87.12
2022-09-23T21:15:45.293Z,88.40
2022-09-23T21:25:51.459Z,90.71
2022-09-23T21:36:03.735Z,91.28
2022-09-23T21:46:13.283Z,92.32
2022-09-23T21:56:37.746Z,93.25
2022-09-23T22:06:40.646Z,93.22
2022-09-23T22:16:50.235Z,93.08
2022-09-23T22:26:55.720Z,93.23
2022-09-23T22:37:04.630Z,95.59
2022-09-23T22:47:11.811Z,95.48
2022-09-23T22:57:15.480Z,96.31
2022-09-23T23:07:23.020Z,98.45
2022-09-23T23:17:28.037Z,100.00
2022-09-23T23:27:32.852Z,100.00
2022-09-23T23:37:37.433Z,100.00
2022-09-23T23:47:40.382Z,100.00
2022-09-23T23:57:42.698Z,100.00
